• Join FlightAware (Why Join?)
  • Login
  • US Flag 
10:29PM EST


 

Airport Tracker/Info


-or-


 

Live Flight TrackerFlight Track Log ✈ SWA9002 ✈ 04-Mar-2014 ✈ KATL - KHOU

Flight Track Log - Related Links

Times and Time Zones

All times are in EST time to prevent confusion due to time zone crossing. See the SWA9002 flight status page for this flight to view local times or setup timezone preferences in your user account.

Time Position Orientation Groundspeed Altitude Reporting Facility
EST Latitude Longitude Course Direction KTS MPH feet Rate Location/Type
01:06PM 33.6500 -84.4000 73° East 159 183 2,100  Level Atlanta TRACON
01:07PM 33.6667 -84.3333 73° East 203 234 4,000 2,286 Climbing Atlanta TRACON
01:08PM 33.7167 -84.2833 40° Northeast 272 313 6,900 2,800 Climbing Atlanta TRACON
01:09PM 33.7833 -84.2833 360° North 277 319 9,600 2,438 Climbing Atlanta TRACON
01:11PM 33.8103 -84.4414 282° West 325 374 13,400 1,554 Climbing Atlanta Center
01:12PM 33.8100 -84.5464 270° West 336 387 13,900 2,000 Climbing Atlanta Center
01:13PM 33.7656 -84.6536 244° Southwest 338 389 17,400 2,400 Climbing Atlanta Center
01:14PM 33.7044 -84.7456 231° Southwest 347 399 18,700 1,700 Climbing Atlanta Center
01:15PM 33.6561 -84.8275 235° Southwest 359 413 20,800 1,850 Climbing Atlanta Center
01:16PM 33.6092 -84.9542 246° West 375 432 22,400 2,350 Climbing Atlanta Center
01:17PM 33.5667 -85.0683 246° West 382 440 25,500 2,600 Climbing Atlanta Center
01:18PM 33.5258 -85.1850 247° West 362 417 27,600 1,800 Climbing Atlanta Center
01:19PM 33.4997 -85.2919 254° West 353 406 29,100 1,550 Climbing Atlanta Center
01:20PM 33.4839 -85.4111 261° West 348 400 30,700 1,700 Climbing Atlanta Center
01:21PM 33.4661 -85.5231 259° West 350 403 32,500 1,600 Climbing Atlanta Center
01:22PM 33.4481 -85.6297 259° West 342 394 33,900 1,450 Climbing Atlanta Center
01:23PM 33.4319 -85.7389 260° West 342 394 35,400 1,050 Climbing Atlanta Center
01:24PM 33.4139 -85.8231 256° West 317 365 36,000 300 Climbing Atlanta Center
01:25PM 33.3997 -85.9372 262° West 317 365 36,000  Level Atlanta Center
01:26PM 33.3814 -86.0464 259° West 331 381 36,000  Level Atlanta Center
01:27PM 33.3647 -86.1581 260° West 344 396 36,000  Level Atlanta Center
01:28PM 33.3461 -86.2694 259° West 344 396 36,000  Level Atlanta Center
01:29PM 33.3294 -86.3783 260° West 349 402 36,000  Level Atlanta Center
01:30PM 33.3042 -86.4994 256° West 349 402 36,000  Level Atlanta Center
01:31PM 33.2897 -86.6033 261° West 349 402 36,000  Level Atlanta Center
01:32PM 33.2750 -86.7025 260° West 344 396 36,000  Level Atlanta Center
01:33PM 33.2494 -86.8133 255° West 338 389 36,000  Level Atlanta Center
01:34PM 33.2117 -86.9214 247° West 338 389 36,000  Level Atlanta Center
01:35PM 33.1778 -87.0244 249° West 346 398 36,000  Level Atlanta Center
01:36PM 33.1394 -87.1372 248° West 340 391 36,000  Level Atlanta Center
01:37PM 33.1036 -87.2403 247° West 340 391 36,000  Level Atlanta Center
01:38PM 33.0694 -87.3481 249° West 351 404 36,000  Level Atlanta Center
01:39PM 33.0372 -87.4533 250° West 351 404 36,000  Level Atlanta Center
01:41PM 32.9628 -87.6858 249° West 342 394 36,000  Level Memphis Center
01:42PM 32.9272 -87.7911 248° West 342 394 36,000  Level Memphis Center
01:43PM 32.8925 -87.8972 249° West 342 394 36,000  Level Memphis Center
01:44PM 32.8583 -88.0053 249° West 342 394 36,000  Level Memphis Center
01:45PM 32.8225 -88.1111 248° West 343 395 36,000  Level Memphis Center
01:46PM 32.7864 -88.2158 248° West 343 395 36,000  Level Memphis Center
01:47PM 32.7436 -88.3425 248° West 343 395 36,000  Level Memphis Center
01:48PM 32.7078 -88.4486 248° West 344 396 36,000  Level Memphis Center
01:50PM 32.6719 -88.5561 248° West 347 399 36,000  Level Memphis Center
01:51PM 32.6356 -88.6639 248° West 348 400 36,000  Level Memphis Center
01:52PM 32.5989 -88.7733 248° West 352 405 36,000  Level Memphis Center
01:53PM 32.5625 -88.8814 248° West 353 406 36,000  Level Memphis Center
01:54PM 32.5242 -88.9917 248° West 357 411 36,000  Level Memphis Center
01:55PM 32.4797 -89.1219 248° West 357 411 36,000  Level Memphis Center
01:56PM 32.4414 -89.2325 248° West 357 411 36,000  Level Memphis Center
01:57PM 32.4028 -89.3417 247° West 358 412 36,000  Level Memphis Center
01:58PM 32.3650 -89.4511 248° West 358 412 36,000  Level Memphis Center
01:59PM 32.3272 -89.5603 248° West 359 413 36,000  Level Memphis Center
02:00PM 32.2889 -89.6694 247° West 359 413 36,000  Level Memphis Center
02:01PM 32.2511 -89.7778 248° West 358 412 36,000  Level Memphis Center
02:02PM 32.2064 -89.9050 247° West 356 410 36,000  Level Memphis Center
02:03PM 32.1697 -90.0097 248° West 350 403 36,000  Level Memphis Center
02:04PM 32.1319 -90.1172 247° West 350 403 36,000  Level Memphis Center
02:05PM 32.0928 -90.2258 247° West 354 407 36,000  Level Memphis Center
02:06PM 32.0539 -90.3356 247° West 359 413 36,000  Level Memphis Center
02:07PM 32.0144 -90.4467 247° West 363 418 36,000  Level Memphis Center
02:08PM 31.9742 -90.5575 247° West 366 421 36,000  Level Memphis Center
02:09PM 31.9261 -90.6914 247° West 367 422 36,000  Level Memphis Center
02:10PM 31.8853 -90.8044 247° West 371 427 36,000  Level Memphis Center
02:11PM 31.8447 -90.9161 247° West 372 428 36,000  Level Memphis Center
02:12PM 31.8039 -91.0289 247° West 372 428 36,000  Level Memphis Center
02:13PM 31.7639 -91.1422 247° West 373 429 36,000  Level Memphis Center
02:14PM 31.7136 -91.2758 246° West 375 432 36,000  Level Memphis Center
02:15PM 31.6731 -91.3842 246° West 370 426 36,000  Level Memphis Center
02:16PM 31.6333 -91.4956 247° West 370 426 36,000  Level Memphis Center
02:17PM 31.5917 -91.6069 246° West 370 426 36,000  Level Memphis Center
02:19PM 31.5364 -91.7569 247° West 372 428 36,000  Level Houston Center
02:20PM 31.4956 -91.8672 247° West 372 428 36,000  Level Houston Center
02:21PM 31.4447 -92.0000 246° West 372 428 36,000  Level Houston Center
02:22PM 31.4036 -92.1119 247° West 372 428 36,000  Level Houston Center
02:23PM 31.3619 -92.2217 246° West 372 428 36,000  Level Houston Center
02:24PM 31.3206 -92.3317 246° West 372 428 36,000  Level Houston Center
02:25PM 31.2783 -92.4419 246° West 372 428 36,000  Level Houston Center
02:26PM 31.2358 -92.5547 246° West 374 430 36,000  Level Houston Center
02:27PM 31.1942 -92.6728 248° West 373 429 36,000  Level Houston Center
02:28PM 31.1539 -92.7819 247° West 368 423 36,000  Level Houston Center
02:29PM 31.1139 -92.8894 247° West 365 420 36,000  Level Houston Center
02:30PM 31.0739 -92.9981 247° West 365 420 36,000  Level Houston Center
02:31PM 31.0244 -93.1303 246° West 368 423 36,000  Level Houston Center
02:32PM 30.9833 -93.2417 247° West 372 428 36,000  Level Houston Center
02:33PM 30.9414 -93.3517 246° West 372 428 36,000  Level Houston Center
02:34PM 30.8992 -93.4631 246° West 374 430 36,000  Level Houston Center
02:35PM 30.8503 -93.5897 246° West 375 432 36,000  Level Houston Center
02:36PM 30.8086 -93.7022 247° West 375 432 36,000  Level Houston Center
02:37PM 30.7669 -93.8125 246° West 373 429 36,000 -919 Level Houston Center
02:38PM 30.7253 -93.9214 246° West 369 425 34,100 -2,371 Descending Houston Center
02:39PM 30.6833 -94.0322 246° West 371 427 31,100 -2,613 Descending Houston Center
02:40PM 30.6406 -94.1436 246° West 373 429 28,700 -2,371 Descending Houston Center
02:41PM 30.5983 -94.2531 246° West 372 428 26,200 -2,553 Descending Houston Center
02:42PM 30.5706 -94.3253 246° West 359 413 24,700 -2,164 Descending Houston Center
02:42PM 30.5589 -94.3556 246° West 353 406 24,000 -2,189 Descending Houston Center
02:43PM 30.5256 -94.4453 247° West 335 386 22,000 -2,613 Descending Houston Center
02:43PM 30.5131 -94.4750 244° Southwest 340 391 21,300 -2,200 Descending Houston Center
02:44PM 30.4786 -94.5436 240° Southwest 347 399 19,800 -2,129 Descending Houston Center
02:44PM 30.4611 -94.5714 234° Southwest 349 402 19,100 -2,060 Descending Houston Center
02:45PM 30.4144 -94.6417 232° Southwest 327 376 17,500 -1,548 Descending Houston Center
02:46PM 30.4131 -94.6450 244° Southwest 333 383 17,500 -2,291 Level Houston Center
02:46PM 30.3669 -94.7156 233° Southwest 321 369 15,400 -2,323 Descending Houston Center
02:47PM 30.3597 -94.7281 236° Southwest 328 377 15,100 -1,663 Descending Houston Center
02:48PM 30.2989 -94.8225 233° Southwest 311 358 13,100 -1,178 Descending Houston Center
02:48PM 30.2553 -94.8869 232° Southwest 313 360 13,000 -194 Descending Houston Center
02:49PM 30.2458 -94.9028 235° Southwest 311 358 12,900 -984 Descending Houston Center
02:49PM 30.2022 -94.9711 234° Southwest 325 374 12,000 -1,065 Descending Houston Center
02:50PM 30.1919 -94.9858 231° Southwest 321 369 11,800 -1,091 Descending Houston Center
02:50PM 30.1544 -95.0447 234° Southwest 314 361 11,000 -968 Descending Houston Center
02:51PM 30.1392 -95.0647 229° Southwest 314 361 10,800 -885 Descending Houston Center
02:51PM 30.0794 -95.0950 204° Southwest 326 375 10,100 -677 Descending Houston Center
02:52PM 30.0550 -95.1050 199° South 325 374 10,100 -100 Level Houston Center
02:52PM 29.9925 -95.1322 201° Southwest 327 376 10,000  Descending Houston Center
02:53PM 29.9539 -95.1486 200° South 325 374 10,100  Climbing Houston Center
02:53PM 29.9100 -95.1689 202° Southwest 323 372 10,000 -97 Descending Houston Center
02:54PM 29.8706 -95.1850 200° South 323 372 10,000  Level Houston Center
02:54PM 29.8208 -95.2064 200° South 321 369 10,000  Level Houston Center
02:55PM 29.7875 -95.2206 200° South 322 371 10,000  Level Houston Center
02:55PM 29.7333 -95.2339 192° South 326 375 10,000 -97 Level Houston Center
02:56PM 29.6994 -95.2342 180° South 327 376 9,900 -689 Descending Houston Center
02:56PM 29.6411 -95.2381 183° South 325 374 9,300 -1,258 Descending Houston Center
02:57PM 29.5961 -95.2375 179° South 321 369 8,600 -1,279 Descending Houston Center
02:57PM 29.5578 -95.2456 190° South 292 336 8,000 -774 Descending Houston Center
02:58PM 29.5317 -95.2711 220° Southwest 269 310 7,800 -787 Descending Houston Center
02:58PM 29.5061 -95.3000 225° Southwest 235 270 7,200 -1,065 Descending Houston Center
02:59PM 29.4856 -95.3228 224° Southwest 237 273 6,700 -1,164 Descending Houston Center
03:00PM 29.4567 -95.3564 225° Southwest 225 259 5,900 -1,258 Descending Houston Center
03:00PM 29.4592 -95.3794 277° West 237 273 5,400 -1,778 Descending Houston Center
03:00PM 29.4789 -95.4136 304° West 231 266 4,300 -1,452 Descending Houston Center
03:01PM 29.5044 -95.4233 342° North 234 269 3,900 -1,258 Descending Houston Center
03:01PM 29.5306 -95.4050 31° Northeast 205 236 3,000 -1,161 Descending Houston Center
03:02PM 29.5500 -95.3850 42° Northeast 214 246 2,700 -885 Descending Houston Center
03:02PM 29.5669 -95.3669 43° Northeast 159 183 2,100 -1,065 Descending Houston Center
03:03PM 29.5858 -95.3422 49° Northeast 174 200 1,600 -787 Descending Houston Center
03:03PM 29.5975 -95.3322 37° Northeast 142 163 1,300 -774 Descending Houston Center
03:04PM 29.6139 -95.3128 46° Northeast 152 175 800 -787 Descending Houston Center
03:04PM 29.6242 -95.3025 41° Northeast 128 147 500 -677 Descending Houston Center
03:05PM 29.6394 -95.2836 47° Northeast 137 158 100 -600 Descending Houston Center